sensor_id;sensor_type;location;lat;lon;timestamp;pressure;altitude;pressure_sealevel;temperature;humidity
42633;BME280;28261;53.304;-6.284;2022-08-21T00:01:15;100860.91;;;14.79;65.68
42633;BME280;28261;53.304;-6.284;2022-08-21T00:03:19;100867.94;;;14.80;65.26
42633;BME280;28261;53.304;-6.284;2022-08-21T00:05:23;100872.44;;;14.80;64.92
42633;BME280;28261;53.304;-6.284;2022-08-21T00:07:28;100870.03;;;14.77;64.60
42633;BME280;28261;53.304;-6.284;2022-08-21T00:09:32;100868.19;;;14.77;64.66
42633;BME280;28261;53.304;-6.284;2022-08-21T00:11:36;100869.28;;;14.75;64.73
42633;BME280;28261;53.304;-6.284;2022-08-21T00:13:41;100873.66;;;14.76;64.79
42633;BME280;28261;53.304;-6.284;2022-08-21T00:15:45;100875.22;;;14.78;64.66
42633;BME280;28261;53.304;-6.284;2022-08-21T00:17:49;100879.59;;;14.79;64.41
42633;BME280;28261;53.304;-6.284;2022-08-21T00:19:52;100876.06;;;14.79;64.42
42633;BME280;28261;53.304;-6.284;2022-08-21T00:21:55;100873.41;;;14.79;64.09
42633;BME280;28261;53.304;-6.284;2022-08-21T00:24:00;100866.97;;;14.81;63.84
42633;BME280;28261;53.304;-6.284;2022-08-21T00:26:04;100868.66;;;14.82;64.05
42633;BME280;28261;53.304;-6.284;2022-08-21T00:28:07;100873.16;;;14.82;64.25
42633;BME280;28261;53.304;-6.284;2022-08-21T00:30:14;100874.97;;;14.81;64.04
42633;BME280;28261;53.304;-6.284;2022-08-21T00:32:24;100870.38;;;14.83;64.09
42633;BME280;28261;53.304;-6.284;2022-08-21T00:34:28;100885.41;;;14.84;63.91
42633;BME280;28261;53.304;-6.284;2022-08-21T00:36:31;100876.41;;;14.85;63.69
42633;BME280;28261;53.304;-6.284;2022-08-21T00:38:35;100884.41;;;14.85;63.71
42633;BME280;28261;53.304;-6.284;2022-08-21T00:40:43;100869.13;;;14.87;63.81
42633;BME280;28261;53.304;-6.284;2022-08-21T00:42:47;100871.53;;;14.91;63.71
42633;BME280;28261;53.304;-6.284;2022-08-21T00:44:54;100876.75;;;14.92;63.66
42633;BME280;28261;53.304;-6.284;2022-08-21T00:46:58;100872.28;;;14.93;63.59
42633;BME280;28261;53.304;-6.284;2022-08-21T00:49:01;100876.50;;;14.95;63.34
42633;BME280;28261;53.304;-6.284;2022-08-21T00:51:08;100873.72;;;14.97;63.20
42633;BME280;28261;53.304;-6.284;2022-08-21T00:53:14;100872.00;;;14.96;63.29
42633;BME280;28261;53.304;-6.284;2022-08-21T00:55:18;100868.47;;;14.95;63.12
42633;BME280;28261;53.304;-6.284;2022-08-21T00:57:28;100873.13;;;14.93;63.01
42633;BME280;28261;53.304;-6.284;2022-08-21T00:59:35;100873.13;;;14.93;62.89
42633;BME280;28261;53.304;-6.284;2022-08-21T01:01:40;100870.56;;;14.92;62.86
42633;BME280;28261;53.304;-6.284;2022-08-21T01:03:43;100862.44;;;14.93;62.83
42633;BME280;28261;53.304;-6.284;2022-08-21T01:05:48;100856.25;;;14.93;62.78
42633;BME280;28261;53.304;-6.284;2022-08-21T01:07:52;100866.94;;;14.93;62.60
42633;BME280;28261;53.304;-6.284;2022-08-21T01:09:56;100861.59;;;14.93;62.86
42633;BME280;28261;53.304;-6.284;2022-08-21T01:11:59;100862.56;;;14.92;62.73
42633;BME280;28261;53.304;-6.284;2022-08-21T01:14:04;100876.75;;;14.92;63.07
42633;BME280;28261;53.304;-6.284;2022-08-21T01:16:09;100879.69;;;14.89;63.27
42633;BME280;28261;53.304;-6.284;2022-08-21T01:18:14;100877.28;;;14.86;63.69
42633;BME280;28261;53.304;-6.284;2022-08-21T01:20:17;100877.41;;;14.84;63.58
42633;BME280;28261;53.304;-6.284;2022-08-21T01:22:22;100882.75;;;14.84;63.75
42633;BME280;28261;53.304;-6.284;2022-08-21T01:24:26;100879.22;;;14.84;63.83
42633;BME280;28261;53.304;-6.284;2022-08-21T01:26:34;100883.72;;;14.83;63.87
42633;BME280;28261;53.304;-6.284;2022-08-21T01:28:42;100881.16;;;14.82;63.73
42633;BME280;28261;53.304;-6.284;2022-08-21T01:30:45;100878.50;;;14.82;63.86
42633;BME280;28261;53.304;-6.284;2022-08-21T01:32:49;100876.81;;;14.81;64.10
42633;BME280;28261;53.304;-6.284;2022-08-21T01:34:53;100874.13;;;14.81;63.91
42633;BME280;28261;53.304;-6.284;2022-08-21T01:36:56;100878.59;;;14.80;63.93
42633;BME280;28261;53.304;-6.284;2022-08-21T01:39:02;100885.06;;;14.78;63.87
42633;BME280;28261;53.304;-6.284;2022-08-21T01:41:06;100882.75;;;14.73;64.16
42633;BME280;28261;53.304;-6.284;2022-08-21T01:43:09;100883.03;;;14.70;64.08
42633;BME280;28261;53.304;-6.284;2022-08-21T01:45:14;100884.25;;;14.66;64.24
42633;BME280;28261;53.304;-6.284;2022-08-21T01:47:18;100881.94;;;14.61;64.42
42633;BME280;28261;53.304;-6.284;2022-08-21T01:49:21;100895.50;;;14.58;64.30
42633;BME280;28261;53.304;-6.284;2022-08-21T01:51:25;100892.97;;;14.56;64.18
42633;BME280;28261;53.304;-6.284;2022-08-21T01:53:28;100884.25;;;14.54;64.22
42633;BME280;28261;53.304;-6.284;2022-08-21T01:55:36;100890.69;;;14.52;64.12
42633;BME280;28261;53.304;-6.284;2022-08-21T01:57:40;100894.44;;;14.49;64.37
42633;BME280;28261;53.304;-6.284;2022-08-21T01:59:43;100888.38;;;14.47;64.36
42633;BME280;28261;53.304;-6.284;2022-08-21T02:01:46;100892.25;;;14.43;64.28
42633;BME280;28261;53.304;-6.284;2022-08-21T02:03:50;100885.47;;;14.39;64.55
42633;BME280;28261;53.304;-6.284;2022-08-21T02:05:53;100886.69;;;14.35;64.85
42633;BME280;28261;53.304;-6.284;2022-08-21T02:07:57;100885.25;;;14.31;65.21
42633;BME280;28261;53.304;-6.284;2022-08-21T02:10:00;100886.47;;;14.27;65.19
42633;BME280;28261;53.304;-6.284;2022-08-21T02:12:06;100876.78;;;14.26;65.26
42633;BME280;28261;53.304;-6.284;2022-08-21T02:14:10;100879.81;;;14.21;65.46
42633;BME280;28261;53.304;-6.284;2022-08-21T02:16:14;100883.56;;;14.18;65.68
42633;BME280;28261;53.304;-6.284;2022-08-21T02:18:20;100890.22;;;14.13;65.38
42633;BME280;28261;53.304;-6.284;2022-08-21T02:20:25;100891.44;;;14.09;65.77
42633;BME280;28261;53.304;-6.284;2022-08-21T02:22:29;100887.06;;;14.08;66.19
42633;BME280;28261;53.304;-6.284;2022-08-21T02:24:32;100890.84;;;14.05;66.39
42633;BME280;28261;53.304;-6.284;2022-08-21T02:26:35;100888.41;;;14.02;66.47
42633;BME280;28261;53.304;-6.284;2022-08-21T02:28:40;100891.34;;;13.99;66.43
42633;BME280;28261;53.304;-6.284;2022-08-21T02:30:47;100889.63;;;13.98;66.71
42633;BME280;28261;53.304;-6.284;2022-08-21T02:32:50;100885.38;;;13.95;67.11
42633;BME280;28261;53.304;-6.284;2022-08-21T02:34:54;100885.50;;;13.94;67.25
42633;BME280;28261;53.304;-6.284;2022-08-21T02:36:57;100889.25;;;13.91;67.04
42633;BME280;28261;53.304;-6.284;2022-08-21T02:39:01;100894.72;;;13.90;67.47
42633;BME280;28261;53.304;-6.284;2022-08-21T02:41:06;100886.97;;;13.86;67.48
42633;BME280;28261;53.304;-6.284;2022-08-21T02:43:10;100875.56;;;13.84;67.48
42633;BME280;28261;53.304;-6.284;2022-08-21T02:45:15;100882.97;;;13.81;67.30
42633;BME280;28261;53.304;-6.284;2022-08-21T02:47:19;100887.69;;;13.77;67.72
42633;BME280;28261;53.304;-6.284;2022-08-21T02:49:22;100885.28;;;13.74;68.21
42633;BME280;28261;53.304;-6.284;2022-08-21T02:51:25;100883.81;;;13.70;68.31
42633;BME280;28261;53.304;-6.284;2022-08-21T02:53:29;100877.97;;;13.65;68.33
42633;BME280;28261;53.304;-6.284;2022-08-21T02:55:34;100871.06;;;13.62;68.79
42633;BME280;28261;53.304;-6.284;2022-08-21T02:57:38;100877.47;;;13.60;68.91
42633;BME280;28261;53.304;-6.284;2022-08-21T02:59:44;100870.56;;;13.57;69.10
42633;BME280;28261;53.304;-6.284;2022-08-21T03:01:50;100878.69;;;13.56;69.33
42633;BME280;28261;53.304;-6.284;2022-08-21T03:03:53;100867.31;;;13.53;69.40
42633;BME280;28261;53.304;-6.284;2022-08-21T03:05:56;100869.25;;;13.51;69.29
42633;BME280;28261;53.304;-6.284;2022-08-21T03:08:01;100870.31;;;13.49;69.17
42633;BME280;28261;53.304;-6.284;2022-08-21T03:10:05;100862.69;;;13.44;69.59
42633;BME280;28261;53.304;-6.284;2022-08-21T03:12:09;100866.03;;;13.35;69.30
42633;BME280;28261;53.304;-6.284;2022-08-21T03:14:12;100863.63;;;13.32;70.29
42633;BME280;28261;53.304;-6.284;2022-08-21T03:16:15;100871.84;;;13.29;69.97
42633;BME280;28261;53.304;-6.284;2022-08-21T03:18:22;100871.09;;;13.27;70.10
42633;BME280;28261;53.304;-6.284;2022-08-21T03:20:27;100861.41;;;13.26;70.32
42633;BME280;28261;53.304;-6.284;2022-08-21T03:22:30;100860.69;;;13.24;70.10
42633;BME280;28261;53.304;-6.284;2022-08-21T03:24:33;100871.34;;;13.24;70.50
42633;BME280;28261;53.304;-6.284;2022-08-21T03:26:37;100868.78;;;13.22;70.22
42633;BME280;28261;53.304;-6.284;2022-08-21T03:28:42;100867.44;;;13.16;69.96
42633;BME280;28261;53.304;-6.284;2022-08-21T03:30:47;100870.31;;;13.13;70.30
42633;BME280;28261;53.304;-6.284;2022-08-21T03:32:50;100866.94;;;13.11;70.77
42633;BME280;28261;53.304;-6.284;2022-08-21T03:34:58;100867.91;;;13.10;70.12
42633;BME280;28261;53.304;-6.284;2022-08-21T03:37:03;100858.22;;;13.09;70.13
42633;BME280;28261;53.304;-6.284;2022-08-21T03:39:06;100862.81;;;13.07;70.43
42633;BME280;28261;53.304;-6.284;2022-08-21T03:41:09;100863.78;;;13.06;70.88
42633;BME280;28261;53.304;-6.284;2022-08-21T03:43:13;100864.72;;;13.05;70.41
42633;BME280;28261;53.304;-6.284;2022-08-21T03:45:17;100864.00;;;13.03;70.93
42633;BME280;28261;53.304;-6.284;2022-08-21T03:47:21;100872.94;;;13.02;70.14
42633;BME280;28261;53.304;-6.284;2022-08-21T03:49:25;100873.91;;;13.01;70.05
42633;BME280;28261;53.304;-6.284;2022-08-21T03:51:30;100879.34;;;12.99;70.16
42633;BME280;28261;53.304;-6.284;2022-08-21T03:53:35;100875.97;;;12.97;70.32
42633;BME280;28261;53.304;-6.284;2022-08-21T03:55:39;100879.59;;;12.96;70.66
42633;BME280;28261;53.304;-6.284;2022-08-21T03:57:42;100879.59;;;12.96;70.15
42633;BME280;28261;53.304;-6.284;2022-08-21T03:59:46;100888.41;;;12.97;70.02
42633;BME280;28261;53.304;-6.284;2022-08-21T04:01:53;100881.50;;;12.94;70.49
42633;BME280;28261;53.304;-6.284;2022-08-21T04:03:57;100878.00;;;12.94;69.91
42633;BME280;28261;53.304;-6.284;2022-08-21T04:06:00;100879.94;;;12.92;70.09
42633;BME280;28261;53.304;-6.284;2022-08-21T04:08:05;100876.53;;;12.90;70.48
42633;BME280;28261;53.304;-6.284;2022-08-21T04:10:09;100878.34;;;12.89;70.13
42633;BME280;28261;53.304;-6.284;2022-08-21T04:12:12;100889.13;;;12.88;70.14
42633;BME280;28261;53.304;-6.284;2022-08-21T04:14:16;100888.38;;;12.85;70.12
42633;BME280;28261;53.304;-6.284;2022-08-21T04:16:20;100884.88;;;12.85;69.72
42633;BME280;28261;53.304;-6.284;2022-08-21T04:18:24;100884.00;;;12.84;70.60
42633;BME280;28261;53.304;-6.284;2022-08-21T04:20:27;100891.16;;;12.84;70.07
42633;BME280;28261;53.304;-6.284;2022-08-21T04:22:30;100887.72;;;12.82;70.46
42633;BME280;28261;53.304;-6.284;2022-08-21T04:24:35;100889.56;;;12.81;69.93
42633;BME280;28261;53.304;-6.284;2022-08-21T04:26:39;100891.69;;;12.76;69.61
42633;BME280;28261;53.304;-6.284;2022-08-21T04:28:42;100897.25;;;12.73;70.02
42633;BME280;28261;53.304;-6.284;2022-08-21T04:30:45;100900.16;;;12.70;70.03
42633;BME280;28261;53.304;-6.284;2022-08-21T04:32:50;100897.69;;;12.67;70.22
42633;BME280;28261;53.304;-6.284;2022-08-21T04:34:58;100902.16;;;12.66;70.25
42633;BME280;28261;53.304;-6.284;2022-08-21T04:37:01;100904.00;;;12.66;69.74
42633;BME280;28261;53.304;-6.284;2022-08-21T04:39:05;100909.31;;;12.66;70.45
42633;BME280;28261;53.304;-6.284;2022-08-21T04:41:12;100911.97;;;12.66;70.43
42633;BME280;28261;53.304;-6.284;2022-08-21T04:43:17;100925.28;;;12.66;70.12
42633;BME280;28261;53.304;-6.284;2022-08-21T04:45:24;100921.84;;;12.64;70.15
42633;BME280;28261;53.304;-6.284;2022-08-21T04:47:27;100918.47;;;12.62;70.23
42633;BME280;28261;53.304;-6.284;2022-08-21T04:49:50;100917.94;;;12.57;69.85
42633;BME280;28261;53.304;-6.284;2022-08-21T04:51:54;100922.03;;;12.49;69.45
42633;BME280;28261;53.304;-6.284;2022-08-21T04:53:59;100925.09;;;12.43;70.74
42633;BME280;28261;53.304;-6.284;2022-08-21T04:56:06;100922.78;;;12.39;70.24
42633;BME280;28261;53.304;-6.284;2022-08-21T04:58:14;100925.66;;;12.35;69.83
42633;BME280;28261;53.304;-6.284;2022-08-21T05:00:22;100928.41;;;12.34;70.48
42633;BME280;28261;53.304;-6.284;2022-08-21T05:02:26;100927.47;;;12.35;70.29
42633;BME280;28261;53.304;-6.284;2022-08-21T05:04:33;100924.09;;;12.33;70.79
42633;BME280;28261;53.304;-6.284;2022-08-21T05:06:41;100932.38;;;12.28;70.75
42633;BME280;28261;53.304;-6.284;2022-08-21T05:08:48;100930.06;;;12.24;71.42
42633;BME280;28261;53.304;-6.284;2022-08-21T05:11:03;100936.31;;;12.23;70.91
42633;BME280;28261;53.304;-6.284;2022-08-21T05:13:06;100943.34;;;12.24;70.81
42633;BME280;28261;53.304;-6.284;2022-08-21T05:15:12;100940.47;;;12.27;70.84
42633;BME280;28261;53.304;-6.284;2022-08-21T05:17:15;100939.50;;;12.28;71.03
42633;BME280;28261;53.304;-6.284;2022-08-21T05:19:19;100938.56;;;12.29;70.82
42633;BME280;28261;53.304;-6.284;2022-08-21T05:21:22;100935.78;;;12.30;70.97
42633;BME280;28261;53.304;-6.284;2022-08-21T05:23:25;100936.41;;;12.34;71.23
42633;BME280;28261;53.304;-6.284;2022-08-21T05:25:29;100939.69;;;12.38;71.23
42633;BME280;28261;53.304;-6.284;2022-08-21T05:27:35;100946.84;;;12.37;70.52
42633;BME280;28261;53.304;-6.284;2022-08-21T05:29:40;100946.84;;;12.37;71.03
42633;BME280;28261;53.304;-6.284;2022-08-21T05:31:44;100943.94;;;12.40;70.53
42633;BME280;28261;53.304;-6.284;2022-08-21T05:33:48;100945.53;;;12.43;71.13
42633;BME280;28261;53.304;-6.284;2022-08-21T05:35:54;100946.16;;;12.46;71.02
42633;BME280;28261;53.304;-6.284;2022-08-21T05:37:59;100945.97;;;12.49;70.63
42633;BME280;28261;53.304;-6.284;2022-08-21T05:40:04;100941.13;;;12.55;70.15
42633;BME280;28261;53.304;-6.284;2022-08-21T05:42:23;100951.22;;;12.62;70.50
42633;BME280;28261;53.304;-6.284;2022-08-21T05:44:26;100949.09;;;12.67;69.70
42633;BME280;28261;53.304;-6.284;2022-08-21T05:46:30;100945.13;;;12.73;70.66
42633;BME280;28261;53.304;-6.284;2022-08-21T05:48:35;100944.59;;;12.81;69.56
42633;BME280;28261;53.304;-6.284;2022-08-21T05:50:39;100940.50;;;12.88;69.87
42633;BME280;28261;53.304;-6.284;2022-08-21T05:52:42;100947.94;;;12.96;69.75
42633;BME280;28261;53.304;-6.284;2022-08-21T05:54:46;100941.31;;;13.01;69.48
42633;BME280;28261;53.304;-6.284;2022-08-21T05:56:49;100945.31;;;13.07;68.79
42633;BME280;28261;53.304;-6.284;2022-08-21T05:58:53;100944.84;;;13.13;68.74
42633;BME280;28261;53.304;-6.284;2022-08-21T06:00:59;100947.78;;;13.21;68.66
42633;BME280;28261;53.304;-6.284;2022-08-21T06:03:03;100946.28;;;13.30;69.45
42633;BME280;28261;53.304;-6.284;2022-08-21T06:05:08;100947.53;;;13.37;68.29
42633;BME280;28261;53.304;-6.284;2022-08-21T06:07:11;100951.53;;;13.43;68.56
42633;BME280;28261;53.304;-6.284;2022-08-21T06:09:15;100949.63;;;13.45;68.57
42633;BME280;28261;53.304;-6.284;2022-08-21T06:11:18;100945.63;;;13.51;68.36
42633;BME280;28261;53.304;-6.284;2022-08-21T06:13:25;100947.09;;;13.55;68.38
42633;BME280;28261;53.304;-6.284;2022-08-21T06:15:28;100951.00;;;13.62;67.85
42633;BME280;28261;53.304;-6.284;2022-08-21T06:17:32;100953.31;;;13.67;67.67
42633;BME280;28261;53.304;-6.284;2022-08-21T06:19:35;100951.13;;;13.72;67.72
42633;BME280;28261;53.304;-6.284;2022-08-21T06:21:40;100960.84;;;13.84;67.68
42633;BME280;28261;53.304;-6.284;2022-08-21T06:23:44;100961.50;;;14.11;66.65
42633;BME280;28261;53.304;-6.284;2022-08-21T06:25:47;100965.59;;;14.49;66.00
42633;BME280;28261;53.304;-6.284;2022-08-21T06:27:50;100960.88;;;14.75;64.74
42633;BME280;28261;53.304;-6.284;2022-08-21T06:29:54;100969.81;;;14.97;64.15
42633;BME280;28261;53.304;-6.284;2022-08-21T06:31:59;100967.88;;;15.31;63.33
42633;BME280;28261;53.304;-6.284;2022-08-21T06:34:02;100968.47;;;15.56;62.52
42633;BME280;28261;53.304;-6.284;2022-08-21T06:36:06;100963.84;;;15.79;62.14
42633;BME280;28261;53.304;-6.284;2022-08-21T06:38:11;100972.13;;;16.18;60.76
42633;BME280;28261;53.304;-6.284;2022-08-21T06:40:14;100974.19;;;16.46;59.91
42633;BME280;28261;53.304;-6.284;2022-08-21T06:42:19;100976.94;;;16.55;59.22
42633;BME280;28261;53.304;-6.284;2022-08-21T06:44:29;100973.84;;;16.70;59.41
42633;BME280;28261;53.304;-6.284;2022-08-21T06:46:33;100989.59;;;17.04;58.75
42633;BME280;28261;53.304;-6.284;2022-08-21T06:48:36;100988.50;;;17.26;58.14
42633;BME280;28261;53.304;-6.284;2022-08-21T06:50:40;100996.53;;;17.26;57.37
42633;BME280;28261;53.304;-6.284;2022-08-21T06:52:44;100995.25;;;17.30;57.68
42633;BME280;28261;53.304;-6.284;2022-08-21T06:54:48;100992.59;;;17.40;57.22
42633;BME280;28261;53.304;-6.284;2022-08-21T06:56:52;101000.63;;;17.59;56.53
42633;BME280;28261;53.304;-6.284;2022-08-21T06:58:55;100980.97;;;17.88;55.75
42633;BME280;28261;53.304;-6.284;2022-08-21T07:00:58;100991.75;;;18.26;54.76
42633;BME280;28261;53.304;-6.284;2022-08-21T07:03:02;100997.22;;;18.44;54.12
42633;BME280;28261;53.304;-6.284;2022-08-21T07:05:06;100988.63;;;18.96;53.19
42633;BME280;28261;53.304;-6.284;2022-08-21T07:07:19;100982.78;;;19.73;51.13
42633;BME280;28261;53.304;-6.284;2022-08-21T07:09:22;100986.72;;;20.39;49.58
42633;BME280;28261;53.304;-6.284;2022-08-21T07:11:27;100978.91;;;20.97;48.04
42633;BME280;28261;53.304;-6.284;2022-08-21T07:13:30;100975.44;;;21.54;46.72
42633;BME280;28261;53.304;-6.284;2022-08-21T07:15:34;100978.56;;;21.99;45.08
42633;BME280;28261;53.304;-6.284;2022-08-21T07:17:37;100987.44;;;22.41;43.71
42633;BME280;28261;53.304;-6.284;2022-08-21T07:19:40;100990.19;;;22.72;42.97
42633;BME280;28261;53.304;-6.284;2022-08-21T07:21:44;100992.38;;;23.00;41.99
42633;BME280;28261;53.304;-6.284;2022-08-21T07:23:50;100988.31;;;23.04;42.04
42633;BME280;28261;53.304;-6.284;2022-08-21T07:25:54;100991.38;;;23.01;42.31
42633;BME280;28261;53.304;-6.284;2022-08-21T07:27:59;100986.63;;;22.80;42.68
42633;BME280;28261;53.304;-6.284;2022-08-21T07:30:03;100985.78;;;22.71;42.72
42633;BME280;28261;53.304;-6.284;2022-08-21T07:32:06;100990.38;;;22.71;42.43
42633;BME280;28261;53.304;-6.284;2022-08-21T07:34:10;100988.81;;;22.76;42.42
42633;BME280;28261;53.304;-6.284;2022-08-21T07:36:14;100996.69;;;22.86;42.33
42633;BME280;28261;53.304;-6.284;2022-08-21T07:38:17;101002.00;;;23.03;41.47
42633;BME280;28261;53.304;-6.284;2022-08-21T07:40:21;101006.72;;;23.09;41.35
42633;BME280;28261;53.304;-6.284;2022-08-21T07:42:25;101013.97;;;23.08;41.25
42633;BME280;28261;53.304;-6.284;2022-08-21T07:44:30;101022.69;;;22.95;41.67
42633;BME280;28261;53.304;-6.284;2022-08-21T07:46:33;101019.44;;;23.00;41.46
42633;BME280;28261;53.304;-6.284;2022-08-21T07:48:37;101026.47;;;23.18;41.34
42633;BME280;28261;53.304;-6.284;2022-08-21T07:50:41;101023.22;;;23.45;40.28
42633;BME280;28261;53.304;-6.284;2022-08-21T07:52:45;101023.16;;;23.54;40.14
42633;BME280;28261;53.304;-6.284;2022-08-21T07:54:49;101027.09;;;23.51;39.99
42633;BME280;28261;53.304;-6.284;2022-08-21T07:56:54;101019.03;;;23.43;40.13
42633;BME280;28261;53.304;-6.284;2022-08-21T07:58:57;101017.53;;;23.40;39.73
42633;BME280;28261;53.304;-6.284;2022-08-21T08:01:02;101008.91;;;23.37;39.71
42633;BME280;28261;53.304;-6.284;2022-08-21T08:03:06;101010.31;;;23.32;39.92
42633;BME280;28261;53.304;-6.284;2022-08-21T08:05:12;101010.72;;;23.21;40.10
42633;BME280;28261;53.304;-6.284;2022-08-21T08:07:15;101016.59;;;22.93;40.62
42633;BME280;28261;53.304;-6.284;2022-08-21T08:09:19;101009.38;;;22.46;41.10
42633;BME280;28261;53.304;-6.284;2022-08-21T08:11:23;101017.25;;;21.67;42.52
42633;BME280;28261;53.304;-6.284;2022-08-21T08:13:26;101023.03;;;21.04;43.87
42633;BME280;28261;53.304;-6.284;2022-08-21T08:15:30;101015.91;;;20.52;45.58
42633;BME280;28261;53.304;-6.284;2022-08-21T08:17:39;101021.06;;;20.11;46.49
42633;BME280;28261;53.304;-6.284;2022-08-21T08:19:43;101022.47;;;19.79;47.64
42633;BME280;28261;53.304;-6.284;2022-08-21T08:21:47;101024.06;;;19.45;48.08
42633;BME280;28261;53.304;-6.284;2022-08-21T08:23:51;101027.41;;;19.11;48.29
42633;BME280;28261;53.304;-6.284;2022-08-21T08:25:55;101025.47;;;18.76;49.02
42633;BME280;28261;53.304;-6.284;2022-08-21T08:27:58;101022.78;;;18.48;49.51
42633;BME280;28261;53.304;-6.284;2022-08-21T08:30:03;101024.56;;;18.20;49.97
42633;BME280;28261;53.304;-6.284;2022-08-21T08:32:07;101034.47;;;18.00;50.44
42633;BME280;28261;53.304;-6.284;2022-08-21T08:34:12;101029.69;;;17.84;49.98
42633;BME280;28261;53.304;-6.284;2022-08-21T08:36:32;101023.78;;;17.61;50.20
42633;BME280;28261;53.304;-6.284;2022-08-21T08:38:37;101032.38;;;17.54;50.33
42633;BME280;28261;53.304;-6.284;2022-08-21T08:40:46;101023.75;;;17.51;50.16
42633;BME280;28261;53.304;-6.284;2022-08-21T08:42:51;101028.13;;;17.52;50.29
42633;BME280;28261;53.304;-6.284;2022-08-21T08:44:56;101033.66;;;17.50;50.16
42633;BME280;28261;53.304;-6.284;2022-08-21T08:47:01;101029.00;;;17.52;50.83
42633;BME280;28261;53.304;-6.284;2022-08-21T08:49:09;101025.47;;;17.52;50.39
42633;BME280;28261;53.304;-6.284;2022-08-21T08:51:22;101024.34;;;17.54;50.69
42633;BME280;28261;53.304;-6.284;2022-08-21T08:53:31;101023.06;;;17.58;50.49
42633;BME280;28261;53.304;-6.284;2022-08-21T08:55:37;101022.50;;;17.65;50.59
42633;BME280;28261;53.304;-6.284;2022-08-21T08:57:44;101026.19;;;17.64;50.11
42633;BME280;28261;53.304;-6.284;2022-08-21T08:59:53;101029.97;;;17.61;49.85
42633;BME280;28261;53.304;-6.284;2022-08-21T09:01:58;101030.66;;;17.63;49.81
42633;BME280;28261;53.304;-6.284;2022-08-21T09:04:02;101032.50;;;17.63;49.52
42633;BME280;28261;53.304;-6.284;2022-08-21T09:06:12;101035.63;;;17.58;49.87
42633;BME280;28261;53.304;-6.284;2022-08-21T09:08:33;101028.00;;;17.53;49.61
42633;BME280;28261;53.304;-6.284;2022-08-21T09:10:50;101025.75;;;17.58;49.65
42633;BME280;28261;53.304;-6.284;2022-08-21T09:13:06;101030.41;;;17.66;49.95
42633;BME280;28261;53.304;-6.284;2022-08-21T09:15:21;101030.25;;;17.77;49.53
42633;BME280;28261;53.304;-6.284;2022-08-21T09:17:36;101024.56;;;17.90;49.14
42633;BME280;28261;53.304;-6.284;2022-08-21T09:19:53;101034.47;;;18.00;49.34
42633;BME280;28261;53.304;-6.284;2022-08-21T09:22:06;101029.13;;;18.00;47.46
42633;BME280;28261;53.304;-6.284;2022-08-21T09:24:26;101022.47;;;18.04;47.42
42633;BME280;28261;53.304;-6.284;2022-08-21T09:26:38;101027.81;;;18.14;47.49
42633;BME280;28261;53.304;-6.284;2022-08-21T09:28:46;101028.19;;;18.29;47.54
42633;BME280;28261;53.304;-6.284;2022-08-21T09:30:54;101024.78;;;18.36;46.83
42633;BME280;28261;53.304;-6.284;2022-08-21T09:33:00;101022.25;;;18.35;46.67
42633;BME280;28261;53.304;-6.284;2022-08-21T09:35:07;101019.88;;;18.32;46.90
42633;BME280;28261;53.304;-6.284;2022-08-21T09:37:17;101019.72;;;18.33;46.48
42633;BME280;28261;53.304;-6.284;2022-08-21T09:39:28;101018.00;;;18.42;46.25
42633;BME280;28261;53.304;-6.284;2022-08-21T09:41:34;101021.09;;;18.47;45.67
42633;BME280;28261;53.304;-6.284;2022-08-21T09:43:38;101025.47;;;18.48;45.46
42633;BME280;28261;53.304;-6.284;2022-08-21T09:45:44;101035.28;;;18.57;45.69
42633;BME280;28261;53.304;-6.284;2022-08-21T09:47:48;101025.69;;;18.65;45.44
42633;BME280;28261;53.304;-6.284;2022-08-21T09:49:51;101027.22;;;18.67;45.66
42633;BME280;28261;53.304;-6.284;2022-08-21T09:51:56;101019.38;;;18.74;45.73
42633;BME280;28261;53.304;-6.284;2022-08-21T09:54:14;101014.28;;;18.90;45.01
42633;BME280;28261;53.304;-6.284;2022-08-21T09:56:26;101015.59;;;19.04;45.13
42633;BME280;28261;53.304;-6.284;2022-08-21T09:58:50;101014.06;;;19.20;44.18
42633;BME280;28261;53.304;-6.284;2022-08-21T10:00:57;101013.59;;;19.24;43.87
42633;BME280;28261;53.304;-6.284;2022-08-21T10:03:09;101016.38;;;19.33;43.80
42633;BME280;28261;53.304;-6.284;2022-08-21T10:05:18;101019.69;;;19.44;43.03
42633;BME280;28261;53.304;-6.284;2022-08-21T10:07:24;101032.97;;;19.46;43.08
42633;BME280;28261;53.304;-6.284;2022-08-21T10:09:28;101027.81;;;19.53;43.22
42633;BME280;28261;53.304;-6.284;2022-08-21T10:11:34;101026.66;;;19.55;43.50
42633;BME280;28261;53.304;-6.284;2022-08-21T10:13:50;101026.06;;;19.61;43.20
42633;BME280;28261;53.304;-6.284;2022-08-21T10:16:06;101015.72;;;19.75;42.37
42633;BME280;28261;53.304;-6.284;2022-08-21T10:18:17;101018.88;;;19.88;42.38
42633;BME280;28261;53.304;-6.284;2022-08-21T10:20:27;101017.41;;;19.94;41.98
42633;BME280;28261;53.304;-6.284;2022-08-21T10:22:39;101016.97;;;19.99;41.59
42633;BME280;28261;53.304;-6.284;2022-08-21T10:24:52;101007.56;;;20.03;41.92
42633;BME280;28261;53.304;-6.284;2022-08-21T10:27:09;101014.56;;;19.95;41.67
42633;BME280;28261;53.304;-6.284;2022-08-21T10:29:22;101009.88;;;19.98;42.14
42633;BME280;28261;53.304;-6.284;2022-08-21T10:31:34;101006.50;;;19.95;42.22
42633;BME280;28261;53.304;-6.284;2022-08-21T10:33:46;101003.66;;;19.79;42.48
42633;BME280;28261;53.304;-6.284;2022-08-21T10:36:00;101006.50;;;19.95;42.55
42633;BME280;28261;53.304;-6.284;2022-08-21T10:38:26;101006.63;;;20.12;42.71
42633;BME280;28261;53.304;-6.284;2022-08-21T10:41:03;101006.56;;;20.30;42.14
42633;BME280;28261;53.304;-6.284;2022-08-21T10:43:28;101001.72;;;20.42;41.13
42633;BME280;28261;53.304;-6.284;2022-08-21T10:45:46;101006.81;;;20.45;40.89
42633;BME280;28261;53.304;-6.284;2022-08-21T10:47:54;101010.50;;;20.44;40.97
42633;BME280;28261;53.304;-6.284;2022-08-21T10:50:05;101010.81;;;20.41;40.84